Latest Coastal Weather Observations for Cato Island

IDQ60701

Issued at 6:42 pm EST Monday 24 July 2017 (issued every 10 minutes, with the page automatically refreshed every 10 minutes)

About coastal observations | Map of coastal stations | Coastal observations for QLD | Marine services | Other Formats
Station Details ID: 200601 Name: CATO ISLAND Lat: -23.25 Lon: 155.54 Height: 6.3 m
Data from the previous 72 hours. | See also: Recent months for locations in Queensland
Date/Time
EST
Temp
°C
Wind Pressure Rain since
9am
mm
Weather Cloud Vis
km
Sea
Height
m
Swell
Dir  Spd
kts
Gust
kts
hPa Trend Height
m
Period
s
Dir
24/06:30pm 20.5 CALM 0 1 1019.9 - - - - - - - - -
24/06:00pm 20.0 CALM 0 2 1019.7 - - - - - - - - -
24/05:30pm 20.7 - 4 5 1019.4 - - - - - - - - -
24/05:00pm 20.9 - 4 6 1019.3 - - - - - - - - -
24/04:30pm 21.4 - 2 4 1019.0 - - - - - - - - -
24/04:00pm 21.5 - 4 6 1018.9 - - - - - - - - -
24/03:30pm 22.2 - 3 5 1018.7 - - - - - - - - -
24/03:00pm 22.4 - 2 5 1018.6 - - - - - - - - -
24/02:30pm 22.4 - 5 6 1018.7 - - - - - - - - -
24/02:00pm 23.0 - 3 5 1018.6 - - - - - - - - -
24/01:30pm 22.5 - 4 6 1018.8 - - - - - - - - -
24/01:00pm 22.8 - 4 6 1019.0 - - - - - - - - -
24/12:30pm 22.9 - 4 6 1019.5 - - - - - - - - -
24/12:00pm 22.9 - 3 5 1019.8 - - - - - - - - -
24/11:30am 22.6 - 3 5 1020.2 - - - - - - - - -
24/11:00am 23.0 - 2 4 1020.5 - - - - - - - - -
24/10:30am 22.9 - 1 3 1021.0 - - - - - - - - -
24/10:00am 22.8 CALM 0 2 1021.3 - - - - - - - - -
24/09:30am 22.6 CALM 0 1 1021.5 - - - - - - - - -
24/09:00am 22.3 - 3 4 1021.4 - - - - - - - - -
24/08:30am 22.6 - 3 4 1021.2 - - - - - - - - -
24/08:00am 22.5 CALM 0 2 1021.0 - - - - - - - - -
24/07:30am 20.8 - 2 5 1020.8 - - - - - - - - -
24/07:00am 20.1 CALM 0 0 1020.6 - - - - - - - - -
24/06:30am 19.7 - 2 4 1020.3 - - - - - - - - -
24/06:00am 19.4 - 4 5 1020.0 - - - - - - - - -
24/05:30am 19.7 CALM 0 3 1019.7 - - - - - - - - -
24/05:00am 19.7 CALM 0 2 1019.4 - - - - - - - - -
24/04:30am 19.9 CALM 0 1 1019.2 - - - - - - - - -
24/04:00am 19.6 CALM 0 4 1019.1 - - - - - - - - -
24/03:30am 19.5 - 1 4 1019.1 - - - - - - - - -
24/03:00am 19.9 CALM 0 2 1019.2 - - - - - - - - -
24/02:30am 20.3 - 1 5 1019.3 - - - - - - - - -
24/02:00am 20.0 CALM 0 2 1019.4 - - - - - - - - -
24/01:30am 20.3 CALM 0 3 1019.6 - - - - - - - - -
24/01:00am 20.5 CALM 0 2 1019.7 - - - - - - - - -
24/12:30am 20.2 CALM 0 1 1019.9 - - - - - - - - -
24/12:00am 20.4 CALM 0 0 1019.8 - - - - - - - - -
 
Date/Time
EST
Temp
°C
Wind Pressure Rain since
9am
mm
Weather Cloud Vis
km
Sea
Height
m
Swell
Dir  Spd
kts
Gust
kts
hPa Trend Height
m
Period
s
Dir
23/11:30pm 20.4 CALM 0 0 1019.8 - - - - - - - - -
23/11:00pm 20.7 CALM 0 2 1020.0 - - - - - - - - -
23/10:30pm 20.8 CALM 0 2 1020.2 - - - - - - - - -
23/10:00pm 20.3 CALM 0 0 1020.3 - - - - - - - - -
23/09:30pm 20.8 CALM 0 2 1020.1 - - - - - - - - -
23/09:00pm 20.9 CALM 0 2 1020.0 - - - - - - - - -
23/08:30pm 20.9 CALM 0 3 1019.9 - - - - - - - - -
23/08:00pm 20.6 - 3 10 1019.8 - - - - - - - - -
23/07:30pm 21.0 - 8 11 1019.6 - - - - - - - - -
23/07:00pm 20.8 - 9 11 1019.3 - - - - - - - - -
23/06:30pm 21.1 - 9 11 1019.1 - - - - - - - - -
23/06:00pm 20.8 - 9 12 1018.9 - - - - - - - - -
23/05:30pm 20.8 - 9 11 1018.6 - - - - - - - - -
23/05:00pm 20.7 - 9 11 1018.6 - - - - - - - - -
23/04:30pm 20.8 - 9 11 1018.5 - - - - - - - - -
23/04:00pm 20.9 - 8 11 1018.5 - - - - - - - - -
23/03:30pm 21.0 - 9 11 1018.3 - - - - - - - - -
23/03:00pm 21.2 - 9 11 1018.2 - - - - - - - - -
23/02:30pm 21.4 - 8 11 1018.2 - - - - - - - - -
23/02:00pm 21.5 - 8 11 1018.5 - - - - - - - - -
23/01:30pm 21.1 - 9 11 1018.6 - - - - - - - - -
23/01:00pm 21.4 - 9 11 1018.8 - - - - - - - - -
23/12:30pm 21.1 - 11 13 1019.2 - - - - - - - - -
23/12:00pm 21.5 - 9 11 1019.5 - - - - - - - - -
23/11:30am 21.6 - 9 11 1020.1 - - - - - - - - -
23/11:00am 21.3 - 10 12 1020.6 - - - - - - - - -
23/10:30am 21.0 - 11 13 1020.9 - - - - - - - - -
23/10:00am 21.3 - 8 11 1021.1 - - - - - - - - -
23/09:30am 21.5 - 7 9 1021.3 - - - - - - - - -
23/09:00am 21.1 - 7 9 1021.4 - - - - - - - - -
23/08:30am 21.2 - 7 9 1021.4 - - - - - - - - -
23/08:00am 21.5 - 7 9 1021.3 - - - - - - - - -
23/07:30am 20.8 - 8 9 1021.2 - - - - - - - - -
23/07:00am 20.6 - 6 8 1020.9 - - - - - - - - -
23/06:30am 20.3 - 5 7 1020.6 - - - - - - - - -
23/06:00am 20.3 - 5 8 1020.3 - - - - - - - - -
23/05:30am 20.3 - 6 9 1020.1 - - - - - - - - -
23/05:00am 20.3 - 6 8 1019.9 - - - - - - - - -
23/04:30am 20.4 - 7 10 1019.6 - - - - - - - - -
23/04:00am 20.2 - 7 8 1019.5 - - - - - - - - -
23/03:00am 20.5 - 9 11 1019.5 - - - - - - - - -
23/02:30am 20.5 - 8 11 1019.6 - - - - - - - - -
23/02:00am 20.5 - 11 14 1019.7 - - - - - - - - -
23/01:30am 20.5 - 12 15 1019.8 - - - - - - - - -
23/01:00am 20.6 - 12 15 1020.0 - - - - - - - - -
23/12:30am 20.7 - 13 16 1020.2 - - - - - - - - -
23/12:00am 20.8 - 14 17 1020.4 - - - - - - - - -
 
Date/Time
EST
Temp
°C
Wind Pressure Rain since
9am
mm
Weather Cloud Vis
km
Sea
Height
m
Swell
Dir  Spd
kts
Gust
kts
hPa Trend Height
m
Period
s
Dir
22/11:30pm 20.9 - 13 16 1020.6 - - - - - - - - -
22/11:00pm 20.8 - 14 17 1020.9 - - - - - - - - -
22/10:30pm 20.8 - 14 15 1021.0 - - - - - - - - -
22/10:00pm 21.0 - 13 18 1021.1 - - - - - - - - -
22/09:30pm 21.1 - 15 18 1021.1 - - - - - - - - -
22/09:00pm 21.0 - 15 18 1021.0 - - - - - - - - -
22/08:30pm 21.4 - 15 19 1020.8 - - - - - - - - -
22/08:00pm 20.8 - 11 14 1020.7 - - - - - - - - -
22/07:30pm 20.9 - 11 14 1020.5 - - - - - - - - -
22/07:00pm 21.0 - 12 14 1020.3 - - - - - - - - -
22/06:30pm 20.9 - 14 17 1020.0 - - - - - - - - -
22/06:00pm 20.7 - 13 15 1019.8 - - - - - - - - -
22/05:30pm 20.6 - 14 16 1019.6 - - - - - - - - -
22/05:00pm 20.6 - 13 15 1019.4 - - - - - - - - -
22/04:30pm 20.6 - 10 14 1019.2 - - - - - - - - -
22/04:00pm 20.7 - 13 16 1018.9 - - - - - - - - -
22/03:30pm 20.8 - 12 16 1018.7 - - - - - - - - -
22/03:00pm 20.8 - 12 14 1018.7 - - - - - - - - -
22/02:30pm 21.0 - 13 15 1018.9 - - - - - - - - -
22/02:00pm 21.1 - 13 17 1019.0 - - - - - - - - -
22/01:30pm 21.2 - 14 17 1019.1 - - - - - - - - -
22/01:00pm 21.3 - 12 14 1019.3 - - - - - - - - -
22/12:30pm 21.2 - 14 17 1019.6 - - - - - - - - -
22/12:00pm 21.3 - 13 15 1019.9 - - - - - - - - -
22/11:30am 21.2 - 13 16 1020.5 - - - - - - - - -
22/11:00am 21.2 - 13 17 1020.8 - - - - - - - - -
22/10:30am 21.3 - 13 17 1021.1 - - - - - - - - -
22/10:00am 21.3 - 14 18 1021.2 - - - - - - - - -
22/09:30am 21.3 - 15 17 1021.4 - - - - - - - - -
22/09:00am 21.3 - 15 18 1021.4 - - - - - - - - -
22/08:30am 21.2 - 14 17 1021.2 - - - - - - - - -
22/08:00am 21.1 - 14 16 1020.9 - - - - - - - - -
22/07:30am 21.0 - 12 14 1020.6 - - - - - - - - -
22/07:00am 21.2 - 10 13 1020.3 - - - - - - - - -
22/06:30am 20.9 - 12 16 1020.0 - - - - - - - - -
22/06:00am 20.8 - 13 17 1019.6 - - - - - - - - -
22/05:30am 20.6 - 10 13 1019.1 - - - - - - - - -
22/05:00am 20.7 - 11 14 1018.8 - - - - - - - - -
22/04:30am 20.8 - 12 15 1018.6 - - - - - - - - -
22/04:00am 20.5 - 10 13 1018.4 - - - - - - - - -
22/03:30am 20.5 - 15 19 1018.4 - - - - - - - - -
22/03:00am 20.5 - 14 17 1018.4 - - - - - - - - -
22/02:30am 20.5 - 12 14 1018.5 - - - - - - - - -
22/02:00am 20.4 - 14 18 1018.5 - - - - - - - - -
22/01:30am 20.4 - 14 18 1018.6 - - - - - - - - -
22/01:00am 20.7 - 15 19 1018.7 - - - - - - - - -
22/12:30am 20.8 - 16 20 1018.7 - - - - - - - - -
22/12:00am 20.5 - 11 15 1018.7 - - - - - - - - -
 
Date/Time
EST
Temp
°C
Wind Pressure Rain since
9am
mm
Weather Cloud Vis
km
Sea
Height
m
Swell
Dir  Spd
kts
Gust
kts
hPa Trend Height
m
Period
s
Dir
21/11:30pm 20.6 - 13 16 1018.9 - - - - - - - - -
21/11:00pm 20.4 - 13 17 1019.1 - - - - - - - - -
21/10:30pm 20.4 - 12 15 1019.2 - - - - - - - - -
21/10:00pm 20.4 - 12 15 1019.4 - - - - - - - - -
21/09:30pm 20.4 - 12 18 1019.3 - - - - - - - - -
21/09:00pm 20.3 - 10 14 1019.2 - - - - - - - - -
21/08:30pm 20.1 - 11 14 1019.0 - - - - - - - - -
21/08:00pm 19.9 - 11 14 1018.8 - - - - - - - - -
21/07:30pm 19.7 - 10 14 1018.5 - - - - - - - - -
21/07:00pm 19.7 - 11 15 1018.2 - - - - - - - - -

Other Formats:

Comma delimited format used in spreadsheet applications
http://www.bom.gov.au/fwo/IDQ60701/IDQ60701.94394.axf

JavaScript Object Notation format (JSON) in row-major order
http://www.bom.gov.au/fwo/IDQ60701/IDQ60701.94394.json